This is the latest recevied weather packets stored in our database for station/object K9VSK-9. If no packets are shown the sender has not sent any weather packets the latest 10 day(s).
| Time | Temp. | Humidity | Pressure | Rain* | Wind** | Luminosity | Snow |
|---|---|---|---|---|---|---|---|
| 1778183221 | 14.44° C | 67% | 1014.2 hPa | 0 mm | - | - | - |
| 1778182921 | 13.89° C | 70% | 1014.3 hPa | 0 mm | - | - | - |
| 1778182620 | 13.89° C | 69% | 1014.4 hPa | 0 mm | - | - | - |
| 1778182320 | 13.33° C | 69% | 1014.4 hPa | 0 mm | - | - | - |
| 1778182020 | 13.33° C | 74% | 1014.6 hPa | 0 mm | - | - | - |
| 1778181719 | 12.78° C | 74% | 1014.8 hPa | 0 mm | - | - | - |
| 1778181419 | 12.22° C | 76% | 1014.8 hPa | 0 mm | - | - | - |
| 1778181119 | 12.22° C | 75% | 1014.6 hPa | 0 mm | - | - | - |
| 1778180818 | 12.22° C | 77% | 1014.5 hPa | 1.02 mm | - | - | - |
| 1778180518 | 12.22° C | 79% | 1014.4 hPa | 1.52 mm | - | - | - |
| 1778180219 | 12.22° C | 81% | 1014.2 hPa | 2.79 mm | - | - | - |
| 1778179918 | 12.22° C | 75% | 1014.6 hPa | 15.49 mm | - | - | - |
| 1778179617 | 12.78° C | 70% | 1014.6 hPa | 0 mm | - | - | - |
| 1778179317 | 12.78° C | 70% | 1014.4 hPa | 0 mm | - | - | - |
| 1778179017 | 13.33° C | 66% | 1014.5 hPa | 0 mm | - | - | - |
| 1778178716 | 13.33° C | 64% | 1014.7 hPa | 0 mm | - | - | - |
| 1778178416 | 13.33° C | 61% | 1014.3 hPa | 0 mm | - | - | - |
| 1778178116 | 13.33° C | 64% | 1014.2 hPa | 0 mm | - | - | - |
| 1778177816 | 13.33° C | 69% | 1014.3 hPa | 0 mm | - | - | - |
| 1778177515 | 12.78° C | 73% | 1014.4 hPa | 0 mm | - | - | - |
| 1778177215 | 12.22° C | 69% | 1014.9 hPa | 0 mm | - | - | - |
| 1778176916 | 12.78° C | 65% | 1015 hPa | 0 mm | - | - | - |
| 1778176614 | 13.33° C | 62% | 1014.7 hPa | 0 mm | - | - | - |
| 1778176314 | 13.89° C | 57% | 1014.4 hPa | 0 mm | - | - | - |
| 1778176014 | 13.89° C | 57% | 1014.3 hPa | 0 mm | - | - | - |
* Rain latest hour (hover to see other rain measurements)
** Current wind speed in m/s (hover to see current wind gust speed)